N542SA LFSB-LSZR
Flight info
| Callsign | N542SA |
|---|---|
| Flight time | 0h 16m |
| Altitude | 20000 |
| Route | SB701/N0396F190 DCT ELBEG DCT ENONO DCT ZR685 DCT SITOR |
| Aircraft | LJ35/M-SGHRWXY/SB1 |
Departure
| Time | 2026-04-27 00:10 |
|---|---|
| Airport | EuroAirport Basel–Mulhouse–Freiburg (LFSB) |
Arrival
| Time | 2026-04-27 00:27 |
|---|---|
| Airport | Sankt Gallen Altenrhein Airport (LSZR) |
| Time | Latitude | Longitude | Altitude | Speed | Heading |
|---|---|---|---|---|---|
| 2026-04-26 23:58 | 47.60332 | 7.52528 | 881 ft | 0 kts | 321° |
| 2026-04-27 00:04 | 47.60334 | 7.52526 | 881 ft | 3 kts | 320° |
| 2026-04-27 00:04 | 47.60331 | 7.52480 | 881 ft | 4 kts | 228° |
| 2026-04-27 00:04 | 47.60321 | 7.52466 | 881 ft | 4 kts | 227° |
| 2026-04-27 00:04 | 47.60315 | 7.52455 | 881 ft | 0 kts | 227° |
| 2026-04-27 00:05 | 47.60309 | 7.52447 | 881 ft | 5 kts | 219° |
| 2026-04-27 00:05 | 47.60244 | 7.52468 | 881 ft | 13 kts | 162° |
| 2026-04-27 00:05 | 47.60190 | 7.52440 | 881 ft | 11 kts | 237° |
| 2026-04-27 00:06 | 47.60100 | 7.52442 | 881 ft | 17 kts | 155° |
| 2026-04-27 00:06 | 47.59978 | 7.52527 | 881 ft | 22 kts | 154° |
| 2026-04-27 00:06 | 47.59875 | 7.52598 | 881 ft | 15 kts | 155° |
| 2026-04-27 00:06 | 47.59771 | 7.52669 | 881 ft | 18 kts | 155° |
| 2026-04-27 00:07 | 47.59642 | 7.52759 | 881 ft | 19 kts | 155° |
| 2026-04-27 00:07 | 47.59562 | 7.52815 | 882 ft | 15 kts | 155° |
| 2026-04-27 00:07 | 47.59454 | 7.52890 | 882 ft | 20 kts | 155° |
| 2026-04-27 00:07 | 47.59314 | 7.52986 | 882 ft | 24 kts | 154° |
| 2026-04-27 00:08 | 47.59185 | 7.53102 | 882 ft | 18 kts | 108° |
| 2026-04-27 00:08 | 47.59146 | 7.53265 | 881 ft | 12 kts | 113° |
| 2026-04-27 00:08 | 47.59166 | 7.53429 | 881 ft | 20 kts | 76° |
| 2026-04-27 00:08 | 47.59199 | 7.53630 | 881 ft | 17 kts | 77° |
| 2026-04-27 00:09 | 47.59191 | 7.53720 | 880 ft | 12 kts | 154° |
| 2026-04-27 00:09 | 47.59111 | 7.53702 | 882 ft | 12 kts | 251° |
| 2026-04-27 00:09 | 47.59108 | 7.53685 | 882 ft | 0 kts | 257° |
| 2026-04-27 00:10 | 47.59086 | 7.53541 | 882 ft | 64 kts | 257° |
| 2026-04-27 00:10 | 47.58878 | 7.52195 | 1167 ft | 185 kts | 259° |
| 2026-04-27 00:10 | 47.58598 | 7.50062 | 2665 ft | 230 kts | 264° |
| 2026-04-27 00:10 | 47.58841 | 7.47726 | 4175 ft | 236 kts | 295° |
| 2026-04-27 00:11 | 47.59884 | 7.45863 | 5385 ft | 239 kts | 326° |
| 2026-04-27 00:11 | 47.61494 | 7.45033 | 6489 ft | 268 kts | 356° |
| 2026-04-27 00:11 | 47.63365 | 7.45573 | 8140 ft | 285 kts | 25° |
| 2026-04-27 00:11 | 47.64940 | 7.47387 | 10131 ft | 290 kts | 50° |
| 2026-04-27 00:12 | 47.65869 | 7.50033 | 11800 ft | 296 kts | 73° |
| 2026-04-27 00:12 | 47.66137 | 7.53132 | 13256 ft | 308 kts | 86° |
| 2026-04-27 00:12 | 47.66232 | 7.56361 | 14673 ft | 318 kts | 84° |
| 2026-04-27 00:12 | 47.66507 | 7.59641 | 16143 ft | 324 kts | 76° |
| 2026-04-27 00:13 | 47.67134 | 7.62860 | 17965 ft | 328 kts | 68° |
| 2026-04-27 00:13 | 47.67923 | 7.66101 | 19324 ft | 339 kts | 68° |
| 2026-04-27 00:13 | 47.68684 | 7.69525 | 20179 ft | 367 kts | 70° |
| 2026-04-27 00:13 | 47.69310 | 7.73442 | 20212 ft | 414 kts | 80° |
| 2026-04-27 00:14 | 47.69347 | 7.77910 | 20224 ft | 452 kts | 92° |
| 2026-04-27 00:14 | 47.68829 | 7.82655 | 20228 ft | 478 kts | 100° |
| 2026-04-27 00:14 | 47.68133 | 7.87462 | 20230 ft | 471 kts | 100° |
| 2026-04-27 00:14 | 47.67520 | 7.92208 | 20227 ft | 464 kts | 98° |
| 2026-04-27 00:15 | 47.66994 | 7.96897 | 20228 ft | 459 kts | 98° |
| 2026-04-27 00:15 | 47.66440 | 8.01560 | 20226 ft | 459 kts | 99° |
| 2026-04-27 00:15 | 47.65828 | 8.06238 | 20226 ft | 464 kts | 99° |
| 2026-04-27 00:15 | 47.65213 | 8.10966 | 20228 ft | 467 kts | 99° |
| 2026-04-27 00:16 | 47.64628 | 8.15718 | 20225 ft | 469 kts | 98° |
| 2026-04-27 00:16 | 47.64043 | 8.20487 | 20227 ft | 470 kts | 99° |
| 2026-04-27 00:16 | 47.63433 | 8.25249 | 20230 ft | 471 kts | 99° |
| 2026-04-27 00:16 | 47.62811 | 8.30028 | 20228 ft | 472 kts | 99° |
| 2026-04-27 00:17 | 47.62210 | 8.34759 | 20222 ft | 473 kts | 99° |
| 2026-04-27 00:17 | 47.61606 | 8.39547 | 20065 ft | 470 kts | 99° |
| 2026-04-27 00:17 | 47.61006 | 8.44197 | 18631 ft | 461 kts | 99° |
| 2026-04-27 00:17 | 47.60394 | 8.48858 | 17572 ft | 456 kts | 99° |
| 2026-04-27 00:18 | 47.59810 | 8.53412 | 16975 ft | 440 kts | 99° |
| 2026-04-27 00:18 | 47.59344 | 8.57794 | 16466 ft | 421 kts | 97° |
| 2026-04-27 00:18 | 47.58898 | 8.62006 | 15963 ft | 406 kts | 98° |
| 2026-04-27 00:18 | 47.58453 | 8.66079 | 15346 ft | 396 kts | 98° |
| 2026-04-27 00:19 | 47.58020 | 8.70059 | 14722 ft | 388 kts | 98° |
| 2026-04-27 00:19 | 47.57600 | 8.73981 | 14158 ft | 380 kts | 98° |
| 2026-04-27 00:19 | 47.57187 | 8.77803 | 13586 ft | 373 kts | 98° |
| 2026-04-27 00:19 | 47.56779 | 8.81559 | 13005 ft | 367 kts | 98° |
| 2026-04-27 00:20 | 47.56374 | 8.85258 | 12439 ft | 362 kts | 98° |
| 2026-04-27 00:20 | 47.55974 | 8.88919 | 11881 ft | 358 kts | 98° |
| 2026-04-27 00:20 | 47.55578 | 8.92537 | 11326 ft | 354 kts | 98° |
| 2026-04-27 00:20 | 47.55184 | 8.96119 | 10786 ft | 350 kts | 99° |
| 2026-04-27 00:21 | 47.54795 | 8.99628 | 10267 ft | 348 kts | 99° |
| 2026-04-27 00:21 | 47.54403 | 9.03153 | 9703 ft | 346 kts | 99° |
| 2026-04-27 00:21 | 47.54015 | 9.06652 | 9125 ft | 343 kts | 98° |
| 2026-04-27 00:21 | 47.53631 | 9.10125 | 8563 ft | 335 kts | 98° |
| 2026-04-27 00:22 | 47.53278 | 9.13426 | 8010 ft | 315 kts | 94° |
| 2026-04-27 00:22 | 47.53263 | 9.16586 | 7576 ft | 298 kts | 88° |
| 2026-04-27 00:22 | 47.53151 | 9.19572 | 7344 ft | 282 kts | 97° |
| 2026-04-27 00:22 | 47.52787 | 9.22367 | 7095 ft | 270 kts | 102° |
| 2026-04-27 00:23 | 47.52407 | 9.25071 | 6692 ft | 267 kts | 100° |
| 2026-04-27 00:23 | 47.52077 | 9.27781 | 6221 ft | 267 kts | 99° |
| 2026-04-27 00:23 | 47.51749 | 9.30486 | 5734 ft | 266 kts | 100° |
| 2026-04-27 00:23 | 47.51397 | 9.33137 | 5277 ft | 266 kts | 100° |
| 2026-04-27 00:24 | 47.51068 | 9.35834 | 4799 ft | 265 kts | 99° |
| 2026-04-27 00:24 | 47.50728 | 9.38494 | 4335 ft | 257 kts | 101° |
| 2026-04-27 00:24 | 47.50410 | 9.41005 | 3866 ft | 230 kts | 99° |
| 2026-04-27 00:24 | 47.50124 | 9.43221 | 3500 ft | 216 kts | 101° |
| 2026-04-27 00:25 | 47.49850 | 9.45350 | 3217 ft | 204 kts | 99° |
| 2026-04-27 00:25 | 47.49589 | 9.47359 | 2793 ft | 189 kts | 100° |
| 2026-04-27 00:25 | 47.49340 | 9.49165 | 2378 ft | 168 kts | 102° |
| 2026-04-27 00:25 | 47.49118 | 9.50730 | 2075 ft | 145 kts | 101° |
| 2026-04-27 00:26 | 47.48938 | 9.52117 | 1824 ft | 130 kts | 101° |
| 2026-04-27 00:26 | 47.48784 | 9.53450 | 1598 ft | 132 kts | 99° |
| 2026-04-27 00:26 | 47.48642 | 9.54777 | 1380 ft | 129 kts | 99° |
| 2026-04-27 00:26 | 47.48512 | 9.56004 | 1311 ft | 96 kts | 98° |
| 2026-04-27 00:27 | 47.48440 | 9.56698 | 1305 ft | 41 kts | 98° |
| 2026-04-27 00:27 | 47.48413 | 9.56956 | 1308 ft | 8 kts | 97° |
| 2026-04-27 00:27 | 47.48423 | 9.57034 | 1310 ft | 8 kts | 73° |
| 2026-04-27 00:27 | 47.48423 | 9.57051 | 1310 ft | 3 kts | 122° |
| 2026-04-27 00:28 | 47.48412 | 9.56966 | 1308 ft | 21 kts | 278° |
| 2026-04-27 00:28 | 47.48439 | 9.56706 | 1305 ft | 28 kts | 279° |
| 2026-04-27 00:28 | 47.48471 | 9.56397 | 1306 ft | 32 kts | 278° |
| 2026-04-27 00:28 | 47.48503 | 9.56093 | 1308 ft | 30 kts | 278° |
| 2026-04-27 00:29 | 47.48527 | 9.55853 | 1314 ft | 22 kts | 279° |
| 2026-04-27 00:29 | 47.48554 | 9.55601 | 1312 ft | 26 kts | 279° |
| 2026-04-27 00:29 | 47.48571 | 9.55426 | 1313 ft | 8 kts | 277° |
| 2026-04-27 00:29 | 47.48601 | 9.55328 | 1311 ft | 12 kts | 351° |
| 2026-04-27 00:30 | 47.48681 | 9.55341 | 1308 ft | 9 kts | 4° |
| 2026-04-27 00:30 | 47.48707 | 9.55297 | 1308 ft | 3 kts | 326° |
| 2026-04-27 00:30 | 47.48715 | 9.55297 | 1308 ft | 0 kts | 9° |